Darstellungsparameter: Aktuell verwendete Einstellungen:
Skalierung der Graphiken ... ?
xyx+y,   Skalierungsfaktor:      Skalierung: Modus: x, Faktor: 1
Darstellungszeitraum ... ?
Vom - - bis: - -   Zeitraum: 24.02.2015 - 24.02.2015
Min/Max/Avg-Anzeige ... ?
Zeige MMA aktuell
Zeige MMA Monat
Zeige MMA alles
Zeige --A aktuell
Zeige --A Monat
Zeige --A alles
Keine MMA-Anzeige
MMA:
Average (ber die Originaldaten)
MMA-Basis: 24.02.2015 - 24.02.2015
Quicknavigation für Darstellung... ?
Tage:      1T, 2T, 3T, 5T -1T -2T -3T -5T +1T +2T +3T +5T
Wochen: 1W, 2W, 3W -1W -2W -3W +1W +2W +3W
Monate: 1M, 3M, 6M -1M -3M -6M +1M +3M +6M
Jahre:    1J, 3J, 5J, 10J -1J -3J -5J -10J +1J +3J +5J +10J
Nutze für die Darstellung ... ?
Originaldaten oder Mittelwerte auf ...
Stundenbasis Tagesbasis Wochenbasis
Monatsbasis Jahresbasis      Datenbasis: Original-Daten
Darstellen als:
Statistik (Auto) Statistik J:M      Darstellung:
Zur Graphik,    zurück zur Übersicht aller Sensoren.
 
Tabellarische Datenbersicht: ?
 
Sensor: Nr:Datum:Temp:Abs-Feuchte:Windchill:Wind:
Aussen-T/F 1 24-02-2015 00:00:00 3.2 C 5.85 g/m*3 3.2 C 1.6 km/h
2 24-02-2015 00:05:00 3.2 C 5.85 g/m*3 3.2 C 3.2 km/h
3 24-02-2015 00:10:00 3.2 C 5.85 g/m*3 3.2 C 1.6 km/h
4 24-02-2015 00:15:00 3.1 C 5.81 g/m*3 3.1 C 1.6 km/h
5 24-02-2015 00:20:00 3.1 C 5.81 g/m*3 3.1 C 1.6 km/h
6 24-02-2015 00:25:00 3 C 5.77 g/m*3 3 C 0 km/h
7 24-02-2015 00:30:00 2.9 C 5.73 g/m*3 2.9 C 0 km/h
8 24-02-2015 00:35:00 2.8 C 5.63 g/m*3 2.8 C 1.6 km/h
9 24-02-2015 00:40:00 2.7 C 5.65 g/m*3 2.7 C 1.6 km/h
10 24-02-2015 00:45:00 2.8 C 5.69 g/m*3 2.8 C 1.6 km/h
11 24-02-2015 00:50:00 2.8 C 5.69 g/m*3 2.8 C 0 km/h
12 24-02-2015 00:55:00 2.8 C 5.69 g/m*3 2.8 C 0 km/h
13 24-02-2015 01:00:00 2.7 C 5.65 g/m*3 2.7 C 0 km/h
14 24-02-2015 01:05:00 2.7 C 5.65 g/m*3 2.7 C 0 km/h
15 24-02-2015 01:10:00 2.7 C 5.65 g/m*3 2.7 C 0 km/h
16 24-02-2015 01:15:00 2.6 C 5.61 g/m*3 2.6 C 4.8 km/h
17 24-02-2015 01:20:00 2.6 C 5.61 g/m*3 2.6 C 3.2 km/h
18 24-02-2015 01:25:00 2.4 C 5.54 g/m*3 2.4 C 4.8 km/h
19 24-02-2015 01:30:00 2.3 C 5.5 g/m*3 2.3 C 3.2 km/h
20 24-02-2015 01:35:00 2.3 C 5.5 g/m*3 2.3 C 1.6 km/h
21 24-02-2015 01:40:00 2.3 C 5.5 g/m*3 2.3 C 0 km/h
22 24-02-2015 01:45:00 2.1 C 5.43 g/m*3 2.1 C 0 km/h
23 24-02-2015 01:50:00 2.1 C 5.43 g/m*3 2.1 C 0 km/h
24 24-02-2015 01:55:00 2 C 5.39 g/m*3 2 C 0 km/h
25 24-02-2015 02:00:00 2 C 5.39 g/m*3 2 C 0 km/h
Sensor: Nr:Datum:Temp:Abs-Feuchte:Windchill:Wind:
Aussen-T/F 26 24-02-2015 02:05:00 2 C 5.39 g/m*3 2 C 0 km/h
27 24-02-2015 02:10:00 1.9 C 5.35 g/m*3 1.9 C 3.2 km/h
28 24-02-2015 02:15:00 1.9 C 5.35 g/m*3 1.9 C 1.6 km/h
29 24-02-2015 02:20:00 1.9 C 5.35 g/m*3 1.9 C 1.6 km/h
30 24-02-2015 02:25:00 1.8 C 5.32 g/m*3 1.8 C 1.6 km/h
31 24-02-2015 02:30:00 1.8 C 5.32 g/m*3 1.8 C 3.2 km/h
32 24-02-2015 02:35:00 1.8 C 5.32 g/m*3 1.8 C 1.6 km/h
33 24-02-2015 02:40:00 2 C 5.39 g/m*3 2 C 1.6 km/h
34 24-02-2015 02:45:00 2.2 C 5.46 g/m*3 2.2 C 1.6 km/h
35 24-02-2015 02:50:00 2.4 C 5.54 g/m*3 2.4 C 3.2 km/h
36 24-02-2015 02:55:00 2.5 C 5.58 g/m*3 0.71 C 6.4 km/h
37 24-02-2015 03:00:00 2.6 C 5.61 g/m*3 2.6 C 3.2 km/h
38 24-02-2015 03:05:00 2.7 C 5.65 g/m*3 2.7 C 1.6 km/h
39 24-02-2015 03:10:00 2.8 C 5.69 g/m*3 1.05 C 6.4 km/h
40 24-02-2015 03:15:00 2.9 C 5.73 g/m*3 2.9 C 4.8 km/h
41 24-02-2015 03:20:00 3.2 C 5.85 g/m*3 3.2 C 4.8 km/h
42 24-02-2015 03:25:00 3.3 C 5.88 g/m*3 1.63 C 6.4 km/h
43 24-02-2015 03:30:00 3.4 C 5.86 g/m*3 3.4 C 4.8 km/h
44 24-02-2015 03:35:00 3.6 C 5.88 g/m*3 3.6 C 4.8 km/h
45 24-02-2015 03:40:00 3.7 C 5.86 g/m*3 2.09 C 6.4 km/h
46 24-02-2015 03:45:00 3.8 C 5.77 g/m*3 1.29 C 9.7 km/h
47 24-02-2015 03:50:00 3.9 C 5.75 g/m*3 2.32 C 6.4 km/h
48 24-02-2015 03:55:00 3.9 C 5.62 g/m*3 2.32 C 6.4 km/h
49 24-02-2015 04:00:00 4 C 5.66 g/m*3 2.44 C 6.4 km/h
50 24-02-2015 04:05:00 4.1 C 5.63 g/m*3 0.72 C 14.5 km/h
Sensor: Nr:Datum:Temp:Abs-Feuchte:Windchill:Wind:
Aussen-T/F 51 24-02-2015 04:10:00 4.2 C 5.61 g/m*3 1.43 C 11.3 km/h
52 24-02-2015 04:15:00 4.3 C 5.58 g/m*3 2.29 C 8.1 km/h
53 24-02-2015 04:20:00 4.3 C 5.58 g/m*3 0.97 C 14.5 km/h
54 24-02-2015 04:25:00 4.4 C 5.55 g/m*3 1.67 C 11.3 km/h
55 24-02-2015 04:30:00 4.4 C 5.62 g/m*3 2.9 C 6.4 km/h
56 24-02-2015 04:35:00 4.4 C 5.55 g/m*3 1.67 C 11.3 km/h
57 24-02-2015 04:40:00 4.4 C 5.55 g/m*3 1.67 C 11.3 km/h
58 24-02-2015 04:45:00 4.4 C 5.62 g/m*3 2.9 C 6.4 km/h
59 24-02-2015 04:50:00 4.3 C 5.58 g/m*3 2.29 C 8.1 km/h
60 24-02-2015 04:55:00 4.3 C 5.51 g/m*3 1.24 C 12.9 km/h
61 24-02-2015 05:00:00 4.3 C 5.51 g/m*3 0.97 C 14.5 km/h
62 24-02-2015 05:05:00 4.3 C 5.51 g/m*3 1.55 C 11.3 km/h
63 24-02-2015 05:10:00 4.1 C 5.5 g/m*3 4.1 C 3.2 km/h
64 24-02-2015 05:15:00 3.9 C 5.37 g/m*3 1.41 C 9.7 km/h
65 24-02-2015 05:20:00 3.9 C 5.37 g/m*3 2.32 C 6.4 km/h
66 24-02-2015 05:25:00 3.9 C 5.37 g/m*3 2.32 C 6.4 km/h
67 24-02-2015 05:30:00 3.9 C 5.43 g/m*3 3.9 C 4.8 km/h
68 24-02-2015 05:35:00 3.8 C 5.4 g/m*3 0.94 C 11.3 km/h
69 24-02-2015 05:40:00 3.9 C 5.37 g/m*3 2.32 C 6.4 km/h
70 24-02-2015 05:45:00 3.9 C 5.37 g/m*3 0.75 C 12.9 km/h
71 24-02-2015 05:50:00 3.9 C 5.43 g/m*3 3.9 C 3.2 km/h
72 24-02-2015 05:55:00 3.9 C 5.43 g/m*3 1.41 C 9.7 km/h
73 24-02-2015 06:00:00 3.9 C 5.37 g/m*3 3.9 C 4.8 km/h
74 24-02-2015 06:05:00 3.8 C 5.33 g/m*3 3.8 C 4.8 km/h
75 24-02-2015 06:10:00 3.8 C 5.33 g/m*3 3.8 C 4.8 km/h
Sensor: Nr:Datum:Temp:Abs-Feuchte:Windchill:Wind:
Aussen-T/F 76 24-02-2015 06:15:00 3.8 C 5.33 g/m*3 1.7 C 8.1 km/h
77 24-02-2015 06:20:00 3.7 C 5.3 g/m*3 3.7 C 4.8 km/h
78 24-02-2015 06:25:00 3.7 C 5.36 g/m*3 3.7 C 3.2 km/h
79 24-02-2015 06:30:00 3.6 C 5.32 g/m*3 1.46 C 8.1 km/h
80 24-02-2015 06:35:00 3.6 C 5.39 g/m*3 1.98 C 6.4 km/h
81 24-02-2015 06:40:00 3.6 C 5.39 g/m*3 1.98 C 6.4 km/h
82 24-02-2015 06:45:00 3.7 C 5.42 g/m*3 3.7 C 4.8 km/h
83 24-02-2015 06:50:00 3.8 C 5.4 g/m*3 0.94 C 11.3 km/h
84 24-02-2015 06:55:00 3.9 C 5.37 g/m*3 3.9 C 4.8 km/h
85 24-02-2015 07:00:00 3.9 C 5.31 g/m*3 1.82 C 8.1 km/h
86 24-02-2015 07:05:00 4 C 5.34 g/m*3 0.34 C 16.1 km/h
87 24-02-2015 07:10:00 4.1 C 5.31 g/m*3 1 C 12.9 km/h
88 24-02-2015 07:15:00 4.1 C 5.31 g/m*3 4.1 C 4.8 km/h
89 24-02-2015 07:20:00 4.2 C 5.35 g/m*3 2.17 C 8.1 km/h
90 24-02-2015 07:25:00 4.2 C 5.41 g/m*3 4.2 C 3.2 km/h
91 24-02-2015 07:30:00 4.1 C 5.44 g/m*3 4.1 C 4.8 km/h
92 24-02-2015 07:35:00 4 C 5.4 g/m*3 2.44 C 6.4 km/h
93 24-02-2015 07:40:00 4 C 5.4 g/m*3 1.18 C 11.3 km/h
94 24-02-2015 07:45:00 4.1 C 5.38 g/m*3 4.1 C 1.6 km/h
95 24-02-2015 07:50:00 4.1 C 5.38 g/m*3 1.31 C 11.3 km/h
96 24-02-2015 07:55:00 4.1 C 5.44 g/m*3 4.1 C 3.2 km/h
97 24-02-2015 08:00:00 3.9 C 5.37 g/m*3 3.9 C 3.2 km/h
98 24-02-2015 08:05:00 3.8 C 5.33 g/m*3 2.21 C 6.4 km/h
99 24-02-2015 08:10:00 3.8 C 5.33 g/m*3 1.7 C 8.1 km/h
100 24-02-2015 08:15:00 3.9 C 5.31 g/m*3 1.06 C 11.3 km/h
Sensor: Nr:Datum:Temp:Abs-Feuchte:Windchill:Wind:
Aussen-T/F 101 24-02-2015 08:20:00 4 C 5.34 g/m*3 0.88 C 12.9 km/h
102 24-02-2015 08:25:00 4.2 C 5.35 g/m*3 0.59 C 16.1 km/h
103 24-02-2015 08:30:00 4.3 C 5.32 g/m*3 -0.11 C 22.5 km/h
104 24-02-2015 08:35:00 4.4 C 5.35 g/m*3 0.01 C 22.5 km/h
105 24-02-2015 08:40:00 4.4 C 5.35 g/m*3 0.84 C 16.1 km/h
106 24-02-2015 08:45:00 4.4 C 5.35 g/m*3 1.36 C 12.9 km/h
107 24-02-2015 08:50:00 4.4 C 5.35 g/m*3 0.61 C 17.7 km/h
108 24-02-2015 08:55:00 4.3 C 5.32 g/m*3 2.29 C 8.1 km/h
109 24-02-2015 09:00:00 4.3 C 5.38 g/m*3 1.55 C 11.3 km/h
110 24-02-2015 09:05:00 4.3 C 5.38 g/m*3 1.24 C 12.9 km/h
111 24-02-2015 09:10:00 4.4 C 5.42 g/m*3 0.4 C 19.3 km/h
112 24-02-2015 09:15:00 4.4 C 5.42 g/m*3 0.4 C 19.3 km/h
113 24-02-2015 09:20:00 4.4 C 5.42 g/m*3 1.09 C 14.5 km/h
114 24-02-2015 09:25:00 4.4 C 5.42 g/m*3 0.2 C 20.9 km/h
115 24-02-2015 09:30:00 4.4 C 5.42 g/m*3 1.36 C 12.9 km/h
116 24-02-2015 09:35:00 4.5 C 5.46 g/m*3 1.21 C 14.5 km/h
117 24-02-2015 09:40:00 4.5 C 5.46 g/m*3 1.21 C 14.5 km/h
118 24-02-2015 09:45:00 4.6 C 5.49 g/m*3 0.65 C 19.3 km/h
119 24-02-2015 09:50:00 4.7 C 5.46 g/m*3 0.78 C 19.3 km/h
120 24-02-2015 09:55:00 4.8 C 5.5 g/m*3 0.35 C 24.1 km/h
121 24-02-2015 10:00:00 4.8 C 5.57 g/m*3 2.15 C 11.3 km/h
122 24-02-2015 10:05:00 5 C 5.64 g/m*3 2.39 C 11.3 km/h
123 24-02-2015 10:10:00 5.2 C 5.71 g/m*3 2.63 C 11.3 km/h
124 24-02-2015 10:15:00 5.3 C 5.68 g/m*3 2.2 C 14.5 km/h
125 24-02-2015 10:20:00 5.3 C 5.68 g/m*3 0.99 C 24.1 km/h
Sensor: Nr:Datum:Temp:Abs-Feuchte:Windchill:Wind:
Aussen-T/F 126 24-02-2015 10:25:00 5.3 C 5.68 g/m*3 1.74 C 17.7 km/h
127 24-02-2015 10:30:00 5.3 C 5.68 g/m*3 1.34 C 20.9 km/h
128 24-02-2015 10:35:00 5.2 C 5.58 g/m*3 1.4 C 19.3 km/h
129 24-02-2015 10:40:00 5.2 C 5.65 g/m*3 1.03 C 22.5 km/h
130 24-02-2015 10:45:00 5.3 C 5.68 g/m*3 2.75 C 11.3 km/h
131 24-02-2015 10:50:00 5.3 C 5.61 g/m*3 1.16 C 22.5 km/h
132 24-02-2015 10:55:00 5.3 C 5.61 g/m*3 0.99 C 24.1 km/h
133 24-02-2015 11:00:00 5.4 C 5.65 g/m*3 1.66 C 19.3 km/h
134 24-02-2015 11:05:00 5.4 C 5.65 g/m*3 0.66 C 29 km/h
135 24-02-2015 11:10:00 5.5 C 5.69 g/m*3 2.2 C 16.1 km/h
136 24-02-2015 11:15:00 5.6 C 5.73 g/m*3 1.54 C 22.5 km/h
137 24-02-2015 11:20:00 5.7 C 5.76 g/m*3 3.23 C 11.3 km/h
138 24-02-2015 11:25:00 5.8 C 5.8 g/m*3 1.8 C 22.5 km/h
139 24-02-2015 11:30:00 5.9 C 5.84 g/m*3 1.61 C 25.7 km/h
140 24-02-2015 11:35:00 6 C 5.81 g/m*3 2.05 C 22.5 km/h
141 24-02-2015 11:40:00 6 C 5.88 g/m*3 3.6 C 11.3 km/h
142 24-02-2015 11:45:00 6.1 C 5.84 g/m*3 2.35 C 20.9 km/h
143 24-02-2015 11:50:00 6.2 C 5.88 g/m*3 3.07 C 16.1 km/h
144 24-02-2015 11:55:00 6.2 C 5.88 g/m*3 2.66 C 19.3 km/h
145 24-02-2015 12:00:00 6.3 C 5.92 g/m*3 2.98 C 17.7 km/h
146 24-02-2015 12:05:00 6.5 C 5.92 g/m*3 2.86 C 20.9 km/h
147 24-02-2015 12:10:00 6.6 C 5.89 g/m*3 3.36 C 17.7 km/h
148 24-02-2015 12:15:00 6.6 C 5.96 g/m*3 2.82 C 22.5 km/h
149 24-02-2015 12:20:00 6.7 C 6 g/m*3 2.94 C 22.5 km/h
150 24-02-2015 12:25:00 6.8 C 6.04 g/m*3 3.07 C 22.5 km/h
Sensor: Nr:Datum:Temp:Abs-Feuchte:Windchill:Wind:
Aussen-T/F 151 24-02-2015 12:30:00 6.7 C 5.93 g/m*3 3.92 C 14.5 km/h
152 24-02-2015 12:35:00 6.6 C 5.89 g/m*3 3.17 C 19.3 km/h
153 24-02-2015 12:40:00 6.7 C 5.93 g/m*3 3.92 C 14.5 km/h
154 24-02-2015 12:45:00 6.8 C 5.97 g/m*3 3.61 C 17.7 km/h
155 24-02-2015 12:50:00 6.9 C 6 g/m*3 3.94 C 16.1 km/h
156 24-02-2015 12:55:00 6.9 C 6 g/m*3 3.54 C 19.3 km/h
157 24-02-2015 13:00:00 6.9 C 6 g/m*3 4.41 C 12.9 km/h
158 24-02-2015 13:05:00 6.8 C 5.89 g/m*3 3.61 C 17.7 km/h
159 24-02-2015 13:10:00 6.7 C 5.93 g/m*3 3.92 C 14.5 km/h
160 24-02-2015 13:15:00 6.7 C 5.93 g/m*3 3.48 C 17.7 km/h
161 24-02-2015 13:20:00 6.8 C 5.89 g/m*3 3.07 C 22.5 km/h
162 24-02-2015 13:25:00 6.8 C 5.97 g/m*3 3.61 C 17.7 km/h
163 24-02-2015 13:30:00 6.8 C 5.89 g/m*3 3.61 C 17.7 km/h
164 24-02-2015 13:35:00 6.9 C 6 g/m*3 4.41 C 12.9 km/h
165 24-02-2015 13:40:00 6.9 C 5.93 g/m*3 4.41 C 12.9 km/h
166 24-02-2015 13:45:00 7.1 C 6.08 g/m*3 3.98 C 17.7 km/h
167 24-02-2015 13:50:00 7.2 C 6.04 g/m*3 4.77 C 12.9 km/h
168 24-02-2015 13:55:00 7.2 C 6.04 g/m*3 4.77 C 12.9 km/h
169 24-02-2015 14:00:00 7.2 C 5.97 g/m*3 3.58 C 22.5 km/h
170 24-02-2015 14:05:00 7.2 C 5.97 g/m*3 4.77 C 12.9 km/h
171 24-02-2015 14:10:00 7.1 C 6.01 g/m*3 4.19 C 16.1 km/h
172 24-02-2015 14:15:00 7.1 C 6.01 g/m*3 4.92 C 11.3 km/h
173 24-02-2015 14:20:00 7.1 C 6.01 g/m*3 5.58 C 8.1 km/h
174 24-02-2015 14:25:00 7.2 C 6.04 g/m*3 5.69 C 8.1 km/h
175 24-02-2015 14:30:00 7.2 C 6.04 g/m*3 5.69 C 8.1 km/h
Sensor: Nr:Datum:Temp:Abs-Feuchte:Windchill:Wind:
Aussen-T/F 176 24-02-2015 14:35:00 7.2 C 5.97 g/m*3 4.53 C 14.5 km/h
177 24-02-2015 14:40:00 7.1 C 6.01 g/m*3 4.65 C 12.9 km/h
178 24-02-2015 14:45:00 7.1 C 6.01 g/m*3 4.41 C 14.5 km/h
179 24-02-2015 14:50:00 6.9 C 5.93 g/m*3 3.94 C 16.1 km/h
180 24-02-2015 14:55:00 6.9 C 6 g/m*3 4.99 C 9.7 km/h
181 24-02-2015 15:00:00 6.8 C 5.89 g/m*3 3.42 C 19.3 km/h
182 24-02-2015 15:05:00 6.8 C 5.89 g/m*3 3.82 C 16.1 km/h
183 24-02-2015 15:10:00 6.9 C 6 g/m*3 4.68 C 11.3 km/h
184 24-02-2015 15:15:00 6.9 C 5.93 g/m*3 4.16 C 14.5 km/h
185 24-02-2015 15:20:00 7.1 C 6.01 g/m*3 4.41 C 14.5 km/h
186 24-02-2015 15:25:00 7.2 C 6.04 g/m*3 5.04 C 11.3 km/h
187 24-02-2015 15:30:00 7.2 C 5.97 g/m*3 4.77 C 12.9 km/h
188 24-02-2015 15:35:00 7.2 C 5.89 g/m*3 4.53 C 14.5 km/h
189 24-02-2015 15:40:00 7.2 C 5.97 g/m*3 4.77 C 12.9 km/h
190 24-02-2015 15:45:00 7.2 C 5.97 g/m*3 5.69 C 8.1 km/h
191 24-02-2015 15:50:00 7.1 C 6.01 g/m*3 4.65 C 12.9 km/h
192 24-02-2015 15:55:00 7 C 5.97 g/m*3 4.8 C 11.3 km/h
193 24-02-2015 16:00:00 7 C 6.04 g/m*3 5.46 C 8.1 km/h
194 24-02-2015 16:05:00 7.1 C 6.08 g/m*3 4.92 C 11.3 km/h
195 24-02-2015 16:10:00 7.2 C 6.04 g/m*3 5.35 C 9.7 km/h
196 24-02-2015 16:15:00 7.3 C 6.08 g/m*3 5.47 C 9.7 km/h
197 24-02-2015 16:20:00 7.3 C 6 g/m*3 4.66 C 14.5 km/h
198 24-02-2015 16:25:00 7.2 C 6.04 g/m*3 5.04 C 11.3 km/h
199 24-02-2015 16:30:00 7.2 C 6.04 g/m*3 5.04 C 11.3 km/h
200 24-02-2015 16:35:00 7.2 C 6.04 g/m*3 5.69 C 8.1 km/h
Sensor: Nr:Datum:Temp:Abs-Feuchte:Windchill:Wind:
Aussen-T/F 201 24-02-2015 16:40:00 7.1 C 6.01 g/m*3 5.23 C 9.7 km/h
202 24-02-2015 16:45:00 7.2 C 6.12 g/m*3 6.13 C 6.4 km/h
203 24-02-2015 16:50:00 7.2 C 6.12 g/m*3 5.04 C 11.3 km/h
204 24-02-2015 16:55:00 7.1 C 6.08 g/m*3 7.1 C 4.8 km/h
205 24-02-2015 17:00:00 7.1 C 6.08 g/m*3 5.58 C 8.1 km/h
206 24-02-2015 17:05:00 7.1 C 6.16 g/m*3 5.58 C 8.1 km/h
207 24-02-2015 17:10:00 7.1 C 6.08 g/m*3 7.1 C 4.8 km/h
208 24-02-2015 17:15:00 7.1 C 6.08 g/m*3 5.58 C 8.1 km/h
209 24-02-2015 17:20:00 7 C 6.04 g/m*3 5.9 C 6.4 km/h
210 24-02-2015 17:25:00 7 C 6.04 g/m*3 7 C 4.8 km/h
211 24-02-2015 17:30:00 6.9 C 6 g/m*3 4.99 C 9.7 km/h
212 24-02-2015 17:35:00 6.9 C 6 g/m*3 4.68 C 11.3 km/h
213 24-02-2015 17:40:00 6.8 C 6.04 g/m*3 6.8 C 3.2 km/h
214 24-02-2015 17:45:00 6.7 C 6 g/m*3 5.56 C 6.4 km/h
215 24-02-2015 17:50:00 6.4 C 5.96 g/m*3 4.75 C 8.1 km/h
216 24-02-2015 17:55:00 6.2 C 5.88 g/m*3 4.15 C 9.7 km/h
217 24-02-2015 18:00:00 6.2 C 5.96 g/m*3 4.15 C 9.7 km/h
218 24-02-2015 18:05:00 6.1 C 5.92 g/m*3 6.1 C 4.8 km/h
219 24-02-2015 18:10:00 6.1 C 5.92 g/m*3 4.86 C 6.4 km/h
220 24-02-2015 18:15:00 6 C 5.95 g/m*3 6 C 4.8 km/h
221 24-02-2015 18:20:00 5.9 C 5.91 g/m*3 4.63 C 6.4 km/h
222 24-02-2015 18:25:00 5.7 C 5.91 g/m*3 5.7 C 3.2 km/h
223 24-02-2015 18:30:00 5.6 C 5.94 g/m*3 4.29 C 6.4 km/h
224 24-02-2015 18:35:00 5.3 C 5.89 g/m*3 5.3 C 3.2 km/h
225 24-02-2015 18:40:00 5.2 C 5.92 g/m*3 3.82 C 6.4 km/h
Sensor: Nr:Datum:Temp:Abs-Feuchte:Windchill:Wind:
Aussen-T/F 226 24-02-2015 18:45:00 5.1 C 5.88 g/m*3 5.1 C 3.2 km/h
227 24-02-2015 18:50:00 5 C 5.84 g/m*3 5 C 4.8 km/h
228 24-02-2015 18:55:00 4.8 C 5.83 g/m*3 4.8 C 4.8 km/h
229 24-02-2015 19:00:00 4.8 C 5.9 g/m*3 4.8 C 4.8 km/h
230 24-02-2015 19:05:00 4.8 C 5.9 g/m*3 4.8 C 3.2 km/h
231 24-02-2015 19:10:00 4.9 C 5.87 g/m*3 4.9 C 4.8 km/h
232 24-02-2015 19:15:00 5.1 C 5.88 g/m*3 5.1 C 4.8 km/h
233 24-02-2015 19:20:00 5.3 C 5.96 g/m*3 5.3 C 4.8 km/h
234 24-02-2015 19:25:00 5.3 C 5.96 g/m*3 5.3 C 3.2 km/h
235 24-02-2015 19:30:00 5.3 C 5.96 g/m*3 5.3 C 3.2 km/h
236 24-02-2015 19:35:00 5.3 C 5.89 g/m*3 5.3 C 4.8 km/h
237 24-02-2015 19:40:00 5.4 C 5.93 g/m*3 4.06 C 6.4 km/h
238 24-02-2015 19:45:00 5.4 C 5.86 g/m*3 4.06 C 6.4 km/h
239 24-02-2015 19:50:00 5.5 C 5.9 g/m*3 4.17 C 6.4 km/h
240 24-02-2015 19:55:00 5.6 C 5.94 g/m*3 3.44 C 9.7 km/h
241 24-02-2015 20:00:00 5.6 C 5.94 g/m*3 4.29 C 6.4 km/h
242 24-02-2015 20:05:00 5.6 C 5.94 g/m*3 4.29 C 6.4 km/h
243 24-02-2015 20:10:00 5.6 C 5.87 g/m*3 5.6 C 4.8 km/h
244 24-02-2015 20:15:00 5.6 C 5.87 g/m*3 3.81 C 8.1 km/h
245 24-02-2015 20:20:00 5.6 C 5.94 g/m*3 5.6 C 3.2 km/h
246 24-02-2015 20:25:00 5.6 C 5.87 g/m*3 5.6 C 4.8 km/h
247 24-02-2015 20:30:00 5.6 C 5.87 g/m*3 3.81 C 8.1 km/h
248 24-02-2015 20:35:00 5.6 C 5.87 g/m*3 3.44 C 9.7 km/h
249 24-02-2015 20:40:00 5.6 C 5.87 g/m*3 3.44 C 9.7 km/h
250 24-02-2015 20:45:00 5.6 C 5.94 g/m*3 5.6 C 4.8 km/h
Sensor: Nr:Datum:Temp:Abs-Feuchte:Windchill:Wind:
Aussen-T/F 251 24-02-2015 20:50:00 5.5 C 5.9 g/m*3 5.5 C 4.8 km/h
252 24-02-2015 20:55:00 5.4 C 5.86 g/m*3 4.06 C 6.4 km/h
253 24-02-2015 21:00:00 5.4 C 5.86 g/m*3 4.06 C 6.4 km/h
254 24-02-2015 21:05:00 5.4 C 5.86 g/m*3 3.58 C 8.1 km/h
255 24-02-2015 21:10:00 5.4 C 5.93 g/m*3 3.58 C 8.1 km/h
256 24-02-2015 21:15:00 5.4 C 5.93 g/m*3 4.06 C 6.4 km/h
257 24-02-2015 21:20:00 5.3 C 5.89 g/m*3 5.3 C 4.8 km/h
258 24-02-2015 21:25:00 5.3 C 5.89 g/m*3 3.94 C 6.4 km/h
259 24-02-2015 21:30:00 5.3 C 5.96 g/m*3 3.46 C 8.1 km/h
260 24-02-2015 21:35:00 5.2 C 5.92 g/m*3 5.2 C 4.8 km/h
261 24-02-2015 21:40:00 5.2 C 5.92 g/m*3 2.96 C 9.7 km/h
262 24-02-2015 21:45:00 5.2 C 5.92 g/m*3 2.96 C 9.7 km/h
263 24-02-2015 21:50:00 5.1 C 5.88 g/m*3 3.71 C 6.4 km/h
264 24-02-2015 21:55:00 5.1 C 5.88 g/m*3 3.23 C 8.1 km/h
265 24-02-2015 22:00:00 4.9 C 5.81 g/m*3 2.99 C 8.1 km/h
266 24-02-2015 22:05:00 4.8 C 5.83 g/m*3 4.8 C 3.2 km/h
267 24-02-2015 22:10:00 4.7 C 5.8 g/m*3 4.7 C 4.8 km/h
268 24-02-2015 22:15:00 4.6 C 5.82 g/m*3 4.6 C 4.8 km/h
269 24-02-2015 22:20:00 4.4 C 5.75 g/m*3 4.4 C 4.8 km/h
270 24-02-2015 22:25:00 4.2 C 5.67 g/m*3 4.2 C 4.8 km/h
271 24-02-2015 22:30:00 4.1 C 5.7 g/m*3 2.05 C 8.1 km/h
272 24-02-2015 22:35:00 4 C 5.66 g/m*3 4 C 4.8 km/h
273 24-02-2015 22:40:00 3.9 C 5.62 g/m*3 3.9 C 4.8 km/h
274 24-02-2015 22:45:00 3.7 C 5.55 g/m*3 2.09 C 6.4 km/h
275 24-02-2015 22:50:00 3.6 C 5.57 g/m*3 3.6 C 4.8 km/h
Sensor: Nr:Datum:Temp:Abs-Feuchte:Windchill:Wind:
Aussen-T/F 276 24-02-2015 22:55:00 3.4 C 5.5 g/m*3 3.4 C 3.2 km/h
277 24-02-2015 23:00:00 3.3 C 5.52 g/m*3 1.63 C 6.4 km/h
278 24-02-2015 23:05:00 3.4 C 5.62 g/m*3 1.23 C 8.1 km/h
279 24-02-2015 23:10:00 3.4 C 5.56 g/m*3 3.4 C 3.2 km/h
280 24-02-2015 23:15:00 3.4 C 5.56 g/m*3 3.4 C 3.2 km/h
281 24-02-2015 23:20:00 3.3 C 5.46 g/m*3 3.3 C 3.2 km/h
282 24-02-2015 23:25:00 3.1 C 5.45 g/m*3 3.1 C 3.2 km/h
283 24-02-2015 23:30:00 3 C 5.41 g/m*3 3 C 3.2 km/h
284 24-02-2015 23:35:00 2.9 C 5.43 g/m*3 2.9 C 4.8 km/h
285 24-02-2015 23:40:00 2.9 C 5.43 g/m*3 2.9 C 4.8 km/h
286 24-02-2015 23:45:00 3.1 C 5.57 g/m*3 0.87 C 8.1 km/h
287 24-02-2015 23:50:00 3.4 C 5.62 g/m*3 1.75 C 6.4 km/h
288 24-02-2015 23:55:00 3.4 C 5.62 g/m*3 3.4 C 3.2 km/h

Legende:
   Min
   Max


Maximal/Minimal-Werte vom 24.02.2015 - 24.02.2015

Sensor Min Max Avg
Temp
(Aussen-T/F)
1.8 °C
24-02-2015  02:25:00
7.3 °C
24-02-2015  16:15:00
4.89 °C
Abs-Feuchte
(Aussen-T/F)
5.3 g/m*3
24-02-2015  06:20:00
6.16 g/m*3
24-02-2015  17:05:00
5.7 g/m*3
Windchill
(Aussen-T/F)
-0.11 C
24-02-2015  08:30:00
7.1 C
24-02-2015  16:55:00
3.21 C

Die Daten stammen von einer Davis Vantage Pro 2 Wetter-Station und werden unter Linux mit der Software wview2wettercgi und aufbereitet. Alle Angaben erfolgen ohne Gewähr für ihre Vollständigkeit oder Richtigkeit.
Kontakt: Rainer Krienke krienke@uni-koblenz.de . Meine Webseiten an der Uni Koblenz oder privat.
Version: $Revision: 0.78 $